sensor_id;sensor_type;location;lat;lon;timestamp;P1;P2;P0
49066;PMS5003;34877;27.062;-82.386;2022-11-23T01:27:12;9;9;
49066;PMS5003;34877;27.062;-82.386;2022-11-23T01:37:17;10;9;
49066;PMS5003;34877;27.062;-82.386;2022-11-23T01:47:21;9;9;
49066;PMS5003;34877;27.062;-82.386;2022-11-23T01:57:27;9;9;
49066;PMS5003;34877;27.062;-82.386;2022-11-23T02:07:35;8;8;
49066;PMS5003;34877;27.062;-82.386;2022-11-23T02:17:41;8;7;
49066;PMS5003;34877;27.062;-82.386;2022-11-23T02:27:46;8;8;
49066;PMS5003;34877;27.062;-82.386;2022-11-23T02:37:51;12;10;
49066;PMS5003;34877;27.062;-82.386;2022-11-23T02:47:55;8;7;
49066;PMS5003;34877;27.062;-82.386;2022-11-23T02:58:00;8;7;
49066;PMS5003;34877;27.062;-82.386;2022-11-23T03:08:06;10;9;
49066;PMS5003;34877;27.062;-82.386;2022-11-23T03:18:11;9;8;
49066;PMS5003;34877;27.062;-82.386;2022-11-23T03:28:16;8;8;
49066;PMS5003;34877;27.062;-82.386;2022-11-23T03:38:21;8;8;
49066;PMS5003;34877;27.062;-82.386;2022-11-23T03:48:26;7;7;
49066;PMS5003;34877;27.062;-82.386;2022-11-23T03:58:31;6;5;
49066;PMS5003;34877;27.062;-82.386;2022-11-23T04:08:36;8;6;
49066;PMS5003;34877;27.062;-82.386;2022-11-23T04:18:41;7;6;
49066;PMS5003;34877;27.062;-82.386;2022-11-23T04:28:46;4;4;
49066;PMS5003;34877;27.062;-82.386;2022-11-23T04:38:51;4;4;
49066;PMS5003;34877;27.062;-82.386;2022-11-23T04:48:56;5;5;
49066;PMS5003;34877;27.062;-82.386;2022-11-23T04:59:00;3;3;
49066;PMS5003;34877;27.062;-82.386;2022-11-23T05:09:06;3;3;
49066;PMS5003;34877;27.062;-82.386;2022-11-23T05:19:11;3;3;
49066;PMS5003;34877;27.062;-82.386;2022-11-23T05:29:16;5;5;
49066;PMS5003;34877;27.062;-82.386;2022-11-23T05:39:21;2;2;
49066;PMS5003;34877;27.062;-82.386;2022-11-23T05:49:25;2;2;
49066;PMS5003;34877;27.062;-82.386;2022-11-23T05:59:31;3;3;
49066;PMS5003;34877;27.062;-82.386;2022-11-23T06:09:36;3;3;
49066;PMS5003;34877;27.062;-82.386;2022-11-23T06:19:42;3;3;
49066;PMS5003;34877;27.062;-82.386;2022-11-23T06:29:46;3;2;
49066;PMS5003;34877;27.062;-82.386;2022-11-23T06:39:50;2;2;
49066;PMS5003;34877;27.062;-82.386;2022-11-23T06:49:56;3;3;
49066;PMS5003;34877;27.062;-82.386;2022-11-23T07:00:01;2;2;
49066;PMS5003;34877;27.062;-82.386;2022-11-23T07:10:06;2;2;
49066;PMS5003;34877;27.062;-82.386;2022-11-23T07:20:11;2;1;
49066;PMS5003;34877;27.062;-82.386;2022-11-23T07:30:15;3;2;
49066;PMS5003;34877;27.062;-82.386;2022-11-23T07:40:21;3;3;
49066;PMS5003;34877;27.062;-82.386;2022-11-23T07:50:26;1;1;
49066;PMS5003;34877;27.062;-82.386;2022-11-23T08:00:31;2;2;
49066;PMS5003;34877;27.062;-82.386;2022-11-23T08:10:36;0;0;
49066;PMS5003;34877;27.062;-82.386;2022-11-23T08:20:41;2;2;
49066;PMS5003;34877;27.062;-82.386;2022-11-23T08:30:46;2;2;
49066;PMS5003;34877;27.062;-82.386;2022-11-23T08:40:51;2;2;
49066;PMS5003;34877;27.062;-82.386;2022-11-23T08:51:00;2;2;
49066;PMS5003;34877;27.062;-82.386;2022-11-23T09:01:06;1;1;
49066;PMS5003;34877;27.062;-82.386;2022-11-23T09:11:11;1;1;
49066;PMS5003;34877;27.062;-82.386;2022-11-23T09:21:15;1;1;
49066;PMS5003;34877;27.062;-82.386;2022-11-23T09:31:21;2;2;
49066;PMS5003;34877;27.062;-82.386;2022-11-23T09:41:33;1;1;
49066;PMS5003;34877;27.062;-82.386;2022-11-23T09:51:56;0;0;
49066;PMS5003;34877;27.062;-82.386;2022-11-23T10:02:00;2;2;
49066;PMS5003;34877;27.062;-82.386;2022-11-23T10:12:26;0;0;
49066;PMS5003;34877;27.062;-82.386;2022-11-23T10:22:41;1;1;
49066;PMS5003;34877;27.062;-82.386;2022-11-23T10:32:52;2;2;
49066;PMS5003;34877;27.062;-82.386;2022-11-23T10:43:02;0;0;
49066;PMS5003;34877;27.062;-82.386;2022-11-23T10:53:18;2;2;
49066;PMS5003;34877;27.062;-82.386;2022-11-23T11:03:28;1;1;
49066;PMS5003;34877;27.062;-82.386;2022-11-23T11:13:39;0;0;
49066;PMS5003;34877;27.062;-82.386;2022-11-23T11:23:49;0;0;
49066;PMS5003;34877;27.062;-82.386;2022-11-23T11:33:58;2;2;
49066;PMS5003;34877;27.062;-82.386;2022-11-23T11:44:12;2;2;
49066;PMS5003;34877;27.062;-82.386;2022-11-23T11:54:23;2;2;
49066;PMS5003;34877;27.062;-82.386;2022-11-23T12:04:34;2;2;
49066;PMS5003;34877;27.062;-82.386;2022-11-23T12:14:46;2;2;
49066;PMS5003;34877;27.062;-82.386;2022-11-23T12:24:55;1;1;
49066;PMS5003;34877;27.062;-82.386;2022-11-23T12:35:18;1;1;
49066;PMS5003;34877;27.062;-82.386;2022-11-23T12:45:34;1;1;
49066;PMS5003;34877;27.062;-82.386;2022-11-23T12:55:53;2;2;
49066;PMS5003;34877;27.062;-82.386;2022-11-23T13:06:19;1;0;
49066;PMS5003;34877;27.062;-82.386;2022-11-23T13:16:40;1;1;
49066;PMS5003;34877;27.062;-82.386;2022-11-23T13:27:29;1;1;
49066;PMS5003;34877;27.062;-82.386;2022-11-23T13:38:16;1;1;
49066;PMS5003;34877;27.062;-82.386;2022-11-23T13:48:26;1;1;
49066;PMS5003;34877;27.062;-82.386;2022-11-23T13:58:34;0;0;
49066;PMS5003;34877;27.062;-82.386;2022-11-23T14:08:40;1;1;
49066;PMS5003;34877;27.062;-82.386;2022-11-23T14:18:49;1;1;
49066;PMS5003;34877;27.062;-82.386;2022-11-23T14:41:21;1;1;
49066;PMS5003;34877;27.062;-82.386;2022-11-23T14:51:26;1;1;
49066;PMS5003;34877;27.062;-82.386;2022-11-23T15:01:31;1;1;
49066;PMS5003;34877;27.062;-82.386;2022-11-23T15:11:36;1;1;
49066;PMS5003;34877;27.062;-82.386;2022-11-23T15:21:40;1;1;
49066;PMS5003;34877;27.062;-82.386;2022-11-23T15:31:46;1;1;
49066;PMS5003;34877;27.062;-82.386;2022-11-23T15:41:51;2;1;
49066;PMS5003;34877;27.062;-82.386;2022-11-23T15:51:57;0;0;
49066;PMS5003;34877;27.062;-82.386;2022-11-23T16:02:03;1;1;
49066;PMS5003;34877;27.062;-82.386;2022-11-23T16:12:19;1;1;
49066;PMS5003;34877;27.062;-82.386;2022-11-23T16:22:27;2;2;
49066;PMS5003;34877;27.062;-82.386;2022-11-23T16:32:35;2;2;
49066;PMS5003;34877;27.062;-82.386;2022-11-23T16:42:40;3;2;
49066;PMS5003;34877;27.062;-82.386;2022-11-23T16:52:46;1;1;
49066;PMS5003;34877;27.062;-82.386;2022-11-23T17:02:51;1;1;
49066;PMS5003;34877;27.062;-82.386;2022-11-23T17:12:56;1;1;
49066;PMS5003;34877;27.062;-82.386;2022-11-23T17:23:00;2;2;
49066;PMS5003;34877;27.062;-82.386;2022-11-23T17:33:07;1;1;
49066;PMS5003;34877;27.062;-82.386;2022-11-23T17:43:11;1;1;
49066;PMS5003;34877;27.062;-82.386;2022-11-23T17:53:16;1;1;
49066;PMS5003;34877;27.062;-82.386;2022-11-23T18:03:20;1;1;
49066;PMS5003;34877;27.062;-82.386;2022-11-23T18:13:26;2;2;
49066;PMS5003;34877;27.062;-82.386;2022-11-23T18:23:31;0;0;
49066;PMS5003;34877;27.062;-82.386;2022-11-23T18:33:36;0;0;
49066;PMS5003;34877;27.062;-82.386;2022-11-23T18:43:41;0;0;
49066;PMS5003;34877;27.062;-82.386;2022-11-23T18:53:46;2;2;
49066;PMS5003;34877;27.062;-82.386;2022-11-23T19:03:51;0;0;
49066;PMS5003;34877;27.062;-82.386;2022-11-23T19:13:56;1;1;
49066;PMS5003;34877;27.062;-82.386;2022-11-23T19:24:01;0;0;
49066;PMS5003;34877;27.062;-82.386;2022-11-23T19:34:05;2;1;
49066;PMS5003;34877;27.062;-82.386;2022-11-23T19:44:11;0;0;
49066;PMS5003;34877;27.062;-82.386;2022-11-23T19:54:15;0;0;
49066;PMS5003;34877;27.062;-82.386;2022-11-23T20:04:21;1;1;
49066;PMS5003;34877;27.062;-82.386;2022-11-23T20:14:26;1;1;
49066;PMS5003;34877;27.062;-82.386;2022-11-23T20:24:30;1;1;
49066;PMS5003;34877;27.062;-82.386;2022-11-23T20:34:36;0;0;
49066;PMS5003;34877;27.062;-82.386;2022-11-23T20:44:41;0;0;
49066;PMS5003;34877;27.062;-82.386;2022-11-23T20:54:46;0;0;
49066;PMS5003;34877;27.062;-82.386;2022-11-23T21:04:51;0;0;
49066;PMS5003;34877;27.062;-82.386;2022-11-23T21:14:56;0;0;
49066;PMS5003;34877;27.062;-82.386;2022-11-23T21:25:01;0;0;
49066;PMS5003;34877;27.062;-82.386;2022-11-23T21:35:06;0;0;
49066;PMS5003;34877;27.062;-82.386;2022-11-23T21:45:11;0;0;
49066;PMS5003;34877;27.062;-82.386;2022-11-23T21:55:15;0;0;
49066;PMS5003;34877;27.062;-82.386;2022-11-23T22:05:21;1;1;
49066;PMS5003;34877;27.062;-82.386;2022-11-23T22:15:26;1;1;
49066;PMS5003;34877;27.062;-82.386;2022-11-23T22:25:30;0;0;
49066;PMS5003;34877;27.062;-82.386;2022-11-23T22:35:35;1;1;
49066;PMS5003;34877;27.062;-82.386;2022-11-23T22:45:41;1;1;
49066;PMS5003;34877;27.062;-82.386;2022-11-23T22:55:46;1;1;
49066;PMS5003;34877;27.062;-82.386;2022-11-23T23:05:54;1;1;
49066;PMS5003;34877;27.062;-82.386;2022-11-23T23:16:00;2;2;
49066;PMS5003;34877;27.062;-82.386;2022-11-23T23:26:06;0;0;
49066;PMS5003;34877;27.062;-82.386;2022-11-23T23:36:11;1;1;
49066;PMS5003;34877;27.062;-82.386;2022-11-23T23:46:16;0;0;
49066;PMS5003;34877;27.062;-82.386;2022-11-23T23:56:22;1;1;
